createdAt,value
2018-02-09T00:01:53.954Z,-3.10
2018-02-09T00:04:21.440Z,-3.20
2018-02-09T00:06:48.911Z,-3.20
2018-02-09T00:09:16.400Z,-3.20
2018-02-09T00:11:43.881Z,-3.20
2018-02-09T00:14:11.375Z,-3.20
2018-02-09T00:16:38.852Z,-3.20
2018-02-09T00:19:06.383Z,-3.20
2018-02-09T00:21:33.856Z,-3.20
2018-02-09T00:24:01.332Z,-3.20
2018-02-09T00:26:29.580Z,-3.30
2018-02-09T00:28:57.081Z,-3.20
2018-02-09T00:31:25.316Z,-3.30
2018-02-09T00:33:52.800Z,-3.30
2018-02-09T00:36:20.289Z,-3.30
2018-02-09T00:38:47.769Z,-3.30
2018-02-09T00:41:15.256Z,-3.20
2018-02-09T00:43:42.736Z,-3.20
2018-02-09T00:46:10.993Z,-3.30
2018-02-09T00:48:38.471Z,-3.30
2018-02-09T00:51:06.728Z,-3.30
2018-02-09T00:53:34.212Z,-3.30
2018-02-09T00:56:02.460Z,-3.40
2018-02-09T00:58:29.940Z,-3.40
2018-02-09T01:00:58.195Z,-3.40
2018-02-09T01:03:25.668Z,-3.40
2018-02-09T01:05:53.143Z,-3.40
2018-02-09T01:08:21.661Z,-3.40
2018-02-09T01:10:49.144Z,-3.40
2018-02-09T01:13:16.621Z,-3.40
2018-02-09T01:15:44.112Z,-3.40
2018-02-09T01:18:12.344Z,-3.40
2018-02-09T01:20:39.836Z,-3.40
2018-02-09T01:23:08.081Z,-3.40
2018-02-09T01:25:35.560Z,-3.40
2018-02-09T01:28:03.803Z,-3.40
2018-02-09T01:30:31.288Z,-3.50
2018-02-09T01:32:58.769Z,-3.50
2018-02-09T01:35:27.020Z,-3.50
2018-02-09T01:37:54.496Z,-3.50
2018-02-09T01:40:22.745Z,-3.40
2018-02-09T01:42:50.219Z,-3.50
2018-02-09T01:45:17.704Z,-3.40
2018-02-09T01:47:45.176Z,-3.60
2018-02-09T01:50:16.347Z,-3.50
2018-02-09T01:52:44.588Z,-3.50
2018-02-09T01:55:12.082Z,-3.60
2018-02-09T01:57:39.555Z,-3.60
2018-02-09T02:00:07.043Z,-3.60
2018-02-09T02:02:35.285Z,-3.60
2018-02-09T02:05:02.775Z,-3.60
2018-02-09T02:07:31.020Z,-3.60
2018-02-09T02:09:58.497Z,-3.60
2018-02-09T02:12:25.976Z,-3.60
2018-02-09T02:14:54.233Z,-3.60
2018-02-09T02:17:21.716Z,-3.60
2018-02-09T02:19:49.956Z,-3.70
2018-02-09T02:22:17.440Z,-3.70
2018-02-09T02:24:45.685Z,-3.60
2018-02-09T02:27:13.172Z,-3.70
2018-02-09T02:29:41.413Z,-3.60
2018-02-09T02:32:08.897Z,-3.60
2018-02-09T02:34:36.371Z,-3.50
2018-02-09T02:37:04.620Z,-3.50
2018-02-09T02:39:32.101Z,-3.50
2018-02-09T02:42:00.363Z,-3.40
2018-02-09T02:44:27.840Z,-3.50
2018-02-09T02:46:56.088Z,-3.40
2018-02-09T02:49:23.564Z,-3.50
2018-02-09T02:51:51.053Z,-3.40
2018-02-09T02:54:18.524Z,-3.40
2018-02-09T02:56:46.015Z,-3.40
2018-02-09T02:59:13.497Z,-3.40
2018-02-09T03:01:40.980Z,-3.50
2018-02-09T03:04:08.456Z,-3.40
2018-02-09T03:06:35.936Z,-3.40
2018-02-09T03:09:03.413Z,-3.50
2018-02-09T03:11:30.900Z,-3.50
2018-02-09T03:13:59.139Z,-3.50
2018-02-09T03:16:26.616Z,-3.50
2018-02-09T03:18:54.162Z,-3.50
2018-02-09T03:21:21.600Z,-3.50
2018-02-09T03:23:49.072Z,-3.50
2018-02-09T03:26:16.557Z,-3.50
2018-02-09T03:28:44.028Z,-3.60
2018-02-09T03:31:12.272Z,-3.60
2018-02-09T03:33:39.779Z,-3.60
2018-02-09T03:36:07.256Z,-3.60
2018-02-09T03:38:34.729Z,-3.60
2018-02-09T03:41:02.208Z,-3.70
2018-02-09T03:43:29.680Z,-3.70
2018-02-09T03:45:57.155Z,-3.70
2018-02-09T03:48:25.400Z,-3.70
2018-02-09T03:50:52.888Z,-3.70
2018-02-09T03:53:21.130Z,-3.60
2018-02-09T03:55:48.600Z,-3.60
2018-02-09T03:58:16.084Z,-3.60
2018-02-09T04:00:44.333Z,-3.60
2018-02-09T04:03:11.812Z,-3.60
2018-02-09T04:05:40.051Z,-3.50
2018-02-09T04:08:07.542Z,-3.50
2018-02-09T04:10:35.016Z,-3.50
2018-02-09T04:13:03.260Z,-3.40
2018-02-09T04:15:30.740Z,-3.50
2018-02-09T04:17:58.984Z,-3.40
2018-02-09T04:20:26.460Z,-3.50
2018-02-09T04:22:53.945Z,-3.50
2018-02-09T04:25:22.461Z,-3.40
2018-02-09T04:27:49.943Z,-3.40
2018-02-09T04:30:17.412Z,-3.50
2018-02-09T04:32:44.897Z,-3.50
2018-02-09T04:35:13.132Z,-3.50
2018-02-09T04:37:40.641Z,-3.50
2018-02-09T04:40:08.094Z,-3.50
2018-02-09T04:42:36.340Z,-3.60
2018-02-09T04:45:03.809Z,-3.60
2018-02-09T04:47:31.292Z,-3.60
2018-02-09T04:49:59.528Z,-3.60
2018-02-09T04:52:27.008Z,-3.60
2018-02-09T04:54:55.252Z,-3.50
2018-02-09T04:57:22.732Z,-3.50
2018-02-09T04:59:50.221Z,-3.50
2018-02-09T05:02:18.460Z,-3.60
2018-02-09T05:04:45.932Z,-3.60
2018-02-09T05:07:13.428Z,-3.60
2018-02-09T05:09:40.904Z,-3.50
2018-02-09T05:12:08.468Z,-3.50
2018-02-09T05:14:35.940Z,-3.60
2018-02-09T05:17:03.420Z,-3.70
2018-02-09T05:19:30.896Z,-3.70
2018-02-09T05:21:59.140Z,-3.70
2018-02-09T05:24:26.612Z,-3.70
2018-02-09T05:26:54.096Z,-3.70
2018-02-09T05:29:36.464Z,-3.80
2018-02-09T05:32:03.944Z,-3.80
2018-02-09T05:34:31.422Z,-3.80
2018-02-09T05:36:59.670Z,-3.90
2018-02-09T05:39:27.135Z,-3.90
2018-02-09T05:41:54.643Z,-4.00
2018-02-09T05:44:22.112Z,-4.10
2018-02-09T05:46:49.593Z,-4.10
2018-02-09T05:49:17.068Z,-4.10
2018-02-09T05:51:44.540Z,-4.20
2018-02-09T05:54:12.789Z,-4.20
2018-02-09T05:56:40.264Z,-4.20
2018-02-09T05:59:07.753Z,-4.20
2018-02-09T06:01:35.223Z,-4.20
2018-02-09T06:04:02.704Z,-4.20
2018-02-09T06:06:30.954Z,-4.30
2018-02-09T06:08:58.592Z,-4.30
2018-02-09T06:11:26.837Z,-4.40
2018-02-09T06:13:54.325Z,-4.40
2018-02-09T06:16:22.559Z,-4.30
2018-02-09T06:18:50.040Z,-4.40
2018-02-09T06:21:17.516Z,-4.30
2018-02-09T06:23:45.770Z,-4.40
2018-02-09T06:26:13.252Z,-4.40
2018-02-09T06:28:41.492Z,-4.40
2018-02-09T06:31:08.969Z,-4.40
2018-02-09T06:33:36.452Z,-4.40
2018-02-09T06:36:04.698Z,-4.40
2018-02-09T06:38:32.180Z,-4.40
2018-02-09T06:40:59.665Z,-4.40
2018-02-09T06:43:27.148Z,-4.40
2018-02-09T06:45:54.625Z,-4.40
2018-02-09T06:48:22.109Z,-4.50
2018-02-09T06:50:50.352Z,-4.40
2018-02-09T06:53:17.836Z,-4.50
2018-02-09T06:55:45.312Z,-4.50
2018-02-09T06:58:13.569Z,-4.50
2018-02-09T07:00:41.045Z,-4.50
2018-02-09T07:03:09.292Z,-4.50
2018-02-09T07:05:36.768Z,-4.50
2018-02-09T07:08:05.044Z,-4.50
2018-02-09T07:10:32.507Z,-4.50
2018-02-09T07:13:00.761Z,-4.50
2018-02-09T07:15:28.235Z,-4.50
2018-02-09T07:17:55.712Z,-4.40
2018-02-09T07:20:23.184Z,-4.40
2018-02-09T07:22:50.669Z,-4.40
2018-02-09T07:25:18.144Z,-4.40
2018-02-09T07:27:45.662Z,-4.40
2018-02-09T07:30:13.100Z,-4.30
2018-02-09T07:32:41.335Z,-4.30
2018-02-09T07:35:08.816Z,-4.30
2018-02-09T07:37:36.489Z,-4.30
2018-02-09T07:40:04.748Z,-4.40
2018-02-09T07:42:32.219Z,-4.40
2018-02-09T07:45:00.472Z,-4.30
2018-02-09T07:47:27.948Z,-4.20
2018-02-09T07:49:55.427Z,-4.20
2018-02-09T07:52:23.664Z,-4.10
2018-02-09T07:54:51.145Z,-4.10
2018-02-09T07:57:18.616Z,-4.00
2018-02-09T07:59:59.561Z,-4.00
2018-02-09T08:02:27.032Z,-4.00
2018-02-09T08:04:54.511Z,-4.00
2018-02-09T08:07:22.760Z,-3.80
2018-02-09T08:09:50.244Z,-3.80
2018-02-09T08:12:18.489Z,-3.70
2018-02-09T08:14:45.970Z,-3.70
2018-02-09T08:17:14.233Z,-3.60
2018-02-09T08:31:15.197Z,-3.60
2018-02-09T08:33:42.680Z,-3.50
2018-02-09T08:36:10.169Z,-3.40
2018-02-09T08:38:37.644Z,-3.30
2018-02-09T08:41:05.888Z,-3.10
2018-02-09T08:43:33.384Z,-3.10
2018-02-09T08:46:01.633Z,-3.30
2018-02-09T08:48:29.108Z,-3.30
2018-02-09T08:50:56.592Z,-3.20
2018-02-09T08:53:24.064Z,-3.00
2018-02-09T08:55:51.552Z,-2.80
2018-02-09T08:58:19.027Z,-2.70
2018-02-09T09:00:46.511Z,-2.40
2018-02-09T09:03:14.746Z,-2.50
2018-02-09T09:05:42.231Z,-2.50
2018-02-09T09:08:09.716Z,-2.50
2018-02-09T09:10:37.200Z,-2.30
2018-02-09T09:13:04.673Z,-2.30
2018-02-09T09:15:32.156Z,-2.20
2018-02-09T09:17:59.635Z,-2.00
2018-02-09T09:20:27.888Z,-1.20
2018-02-09T09:22:55.373Z,-1.20
2018-02-09T09:25:23.623Z,-1.40
2018-02-09T09:27:51.118Z,-1.40
2018-02-09T09:30:18.600Z,-1.50
2018-02-09T09:32:46.080Z,-1.40
2018-02-09T09:35:13.587Z,-1.40
2018-02-09T09:37:41.829Z,-1.40
2018-02-09T09:40:09.312Z,-1.50
2018-02-09T09:42:37.555Z,-1.60
2018-02-09T09:45:05.810Z,-1.40
2018-02-09T09:47:33.288Z,-1.40
2018-02-09T09:50:00.776Z,-1.40
2018-02-09T09:52:29.012Z,-1.20
2018-02-09T09:54:56.497Z,-1.20
2018-02-09T09:57:23.972Z,-1.30
2018-02-09T09:59:52.223Z,-1.50
2018-02-09T10:02:31.544Z,-1.50
2018-02-09T10:04:59.036Z,-1.30
2018-02-09T10:07:26.583Z,-1.30
2018-02-09T10:09:54.028Z,-1.20
2018-02-09T10:12:21.512Z,-1.30
2018-02-09T10:14:49.767Z,-0.90
2018-02-09T10:17:17.249Z,-0.90
2018-02-09T10:19:45.508Z,-1.30
2018-02-09T10:22:12.984Z,-1.30
2018-02-09T10:24:41.240Z,-1.30
2018-02-09T10:27:08.717Z,-1.30
2018-02-09T10:29:36.199Z,-1.30
2018-02-09T10:32:03.677Z,-1.20
2018-02-09T10:34:31.156Z,-1.20
2018-02-09T10:36:59.404Z,-1.00
2018-02-09T10:39:26.890Z,-1.00
2018-02-09T10:41:54.382Z,-1.10
2018-02-09T10:44:21.864Z,-1.00
2018-02-09T10:46:49.361Z,-0.90
2018-02-09T10:49:16.845Z,-0.80
2018-02-09T10:51:44.331Z,-0.90
2018-02-09T10:54:12.572Z,-0.80
2018-02-09T10:56:40.102Z,-0.80
2018-02-09T10:59:07.576Z,-0.60
2018-02-09T11:01:36.613Z,-0.50
2018-02-09T11:04:04.857Z,-0.50
2018-02-09T11:06:32.341Z,-0.50
2018-02-09T11:08:59.823Z,-0.40
2018-02-09T11:11:27.317Z,-0.40
2018-02-09T11:13:54.803Z,-0.20
2018-02-09T11:16:22.290Z,0.00
2018-02-09T11:18:50.531Z,-0.30
2018-02-09T11:21:18.020Z,-0.30
2018-02-09T11:23:46.264Z,-0.10
2018-02-09T11:26:13.760Z,-0.10
2018-02-09T11:28:42.000Z,0.00
2018-02-09T11:31:09.488Z,0.00
2018-02-09T11:33:37.732Z,0.20
2018-02-09T11:36:05.224Z,0.10
2018-02-09T11:38:33.477Z,0.10
2018-02-09T11:41:00.993Z,0.10
2018-02-09T11:43:28.533Z,0.30
2018-02-09T11:45:55.984Z,0.20
2018-02-09T11:48:24.241Z,0.00
2018-02-09T11:50:51.738Z,0.00
2018-02-09T11:53:19.216Z,0.00
2018-02-09T11:55:46.702Z,0.00
2018-02-09T11:58:14.176Z,0.10
2018-02-09T12:00:42.437Z,-0.10
2018-02-09T12:03:09.920Z,-0.10
2018-02-09T12:05:38.180Z,-0.30
2018-02-09T12:08:05.664Z,-0.40
2018-02-09T12:10:33.944Z,-0.30
2018-02-09T12:13:02.188Z,-0.20
2018-02-09T12:15:29.668Z,-0.30
2018-02-09T12:17:57.925Z,0.00
2018-02-09T12:20:25.389Z,0.00
2018-02-09T12:22:52.869Z,0.20
2018-02-09T12:25:21.137Z,0.10
2018-02-09T12:27:48.616Z,0.10
2018-02-09T12:30:16.094Z,0.10
2018-02-09T12:32:43.582Z,0.00
2018-02-09T12:35:11.062Z,0.20
2018-02-09T12:37:38.536Z,0.20
2018-02-09T12:40:06.788Z,0.20
2018-02-09T12:42:34.273Z,0.20
2018-02-09T12:45:02.512Z,0.30
2018-02-09T12:47:30.004Z,0.30
2018-02-09T12:49:58.248Z,0.10
2018-02-09T12:52:25.732Z,0.10
2018-02-09T12:54:53.980Z,0.20
2018-02-09T12:57:21.463Z,0.30
2018-02-09T12:59:48.936Z,0.20
2018-02-09T13:02:17.194Z,0.30
2018-02-09T13:04:45.037Z,0.20
2018-02-09T13:07:12.534Z,0.20
2018-02-09T13:09:40.768Z,0.30
2018-02-09T13:12:08.269Z,0.20
2018-02-09T13:14:48.462Z,0.40
2018-02-09T13:17:15.944Z,0.40
2018-02-09T13:19:43.420Z,0.30
2018-02-09T13:22:22.698Z,0.30
2018-02-09T13:24:50.172Z,0.40
2018-02-09T13:27:17.651Z,0.50
2018-02-09T13:29:45.125Z,0.50
2018-02-09T13:32:24.400Z,0.60
2018-02-09T13:34:52.649Z,0.60
2018-02-09T13:37:35.904Z,0.50
2018-02-09T13:40:03.383Z,0.70
2018-02-09T13:42:30.885Z,0.70
2018-02-09T13:44:58.416Z,0.80
2018-02-09T13:47:25.873Z,0.80
2018-02-09T13:49:53.343Z,0.70
2018-02-09T13:52:20.837Z,0.60
2018-02-09T13:54:48.304Z,0.60
2018-02-09T13:57:16.552Z,0.60
2018-02-09T13:59:44.040Z,0.60
2018-02-09T14:02:12.295Z,0.80
2018-02-09T14:04:41.422Z,0.80
2018-02-09T14:07:08.920Z,1.00
2018-02-09T14:09:36.411Z,0.70
2018-02-09T14:12:03.901Z,0.60
2018-02-09T14:14:31.464Z,0.40
2018-02-09T14:16:58.968Z,0.40
2018-02-09T14:19:26.452Z,0.50
2018-02-09T14:21:53.936Z,0.40
2018-02-09T14:24:21.408Z,0.30
2018-02-09T14:26:48.913Z,0.40
2018-02-09T14:29:16.392Z,0.30
2018-02-09T14:31:43.865Z,0.20
2018-02-09T14:34:12.116Z,0.30
2018-02-09T14:36:39.587Z,0.30
2018-02-09T14:39:07.844Z,0.30
2018-02-09T14:41:35.320Z,0.30
2018-02-09T14:44:03.577Z,0.30
2018-02-09T14:46:31.053Z,0.30
2018-02-09T14:48:58.536Z,0.40
2018-02-09T14:51:26.023Z,0.40
2018-02-09T14:53:53.528Z,0.40
2018-02-09T14:56:21.009Z,0.30
2018-02-09T14:58:49.259Z,0.30
2018-02-09T15:01:16.744Z,0.20
2018-02-09T15:03:44.230Z,0.30
2018-02-09T15:06:11.707Z,0.20
2018-02-09T15:08:39.184Z,0.20
2018-02-09T15:11:06.665Z,0.20
2018-02-09T15:13:34.917Z,0.10
2018-02-09T15:16:02.397Z,0.10
2018-02-09T15:18:30.648Z,0.20
2018-02-09T15:20:58.121Z,0.20
2018-02-09T15:23:25.599Z,0.20
2018-02-09T15:25:53.845Z,0.00
2018-02-09T15:28:21.330Z,0.00
2018-02-09T15:30:49.577Z,0.10
2018-02-09T15:33:17.067Z,0.10
2018-02-09T15:35:45.312Z,-0.10
2018-02-09T15:38:12.800Z,-0.10
2018-02-09T15:40:41.059Z,-0.30
2018-02-09T15:43:08.544Z,-0.30
2018-02-09T15:45:36.795Z,-0.20
2018-02-09T15:48:04.302Z,-0.30
2018-02-09T15:50:31.781Z,-0.30
2018-02-09T15:52:59.276Z,-0.40
2018-02-09T15:55:26.752Z,-0.30
2018-02-09T15:57:55.021Z,-0.30
2018-02-09T16:00:23.270Z,-0.30
2018-02-09T16:02:50.756Z,-0.30
2018-02-09T16:05:19.003Z,-0.40
2018-02-09T16:07:46.504Z,-0.40
2018-02-09T16:10:14.745Z,-0.40
2018-02-09T16:12:42.224Z,-0.40
2018-02-09T16:15:10.532Z,-0.50
2018-02-09T16:17:37.961Z,-0.50
2018-02-09T16:20:06.212Z,-0.50
2018-02-09T16:22:33.694Z,-0.60
2018-02-09T16:25:01.950Z,-0.60
2018-02-09T16:27:29.424Z,-0.60
2018-02-09T16:29:56.906Z,-0.60
2018-02-09T16:32:24.397Z,-0.60
2018-02-09T16:34:51.889Z,-0.70
2018-02-09T16:37:19.361Z,-0.70
2018-02-09T16:39:47.615Z,-0.70
2018-02-09T16:42:15.099Z,-0.80
2018-02-09T16:44:43.352Z,-0.80
2018-02-09T16:47:10.828Z,-0.80
2018-02-09T16:49:38.324Z,-0.80
2018-02-09T16:52:05.796Z,-0.80
2018-02-09T16:54:33.281Z,-0.90
2018-02-09T16:57:00.751Z,-0.90
2018-02-09T16:59:28.243Z,-0.90
2018-02-09T17:01:55.772Z,-1.00
2018-02-09T17:04:23.267Z,-1.00
2018-02-09T17:06:50.748Z,-1.00
2018-02-09T17:09:18.233Z,-0.90
2018-02-09T17:11:45.706Z,-0.90
2018-02-09T17:14:13.192Z,-0.90
2018-02-09T17:16:40.669Z,-0.90
2018-02-09T17:19:08.160Z,-0.80
2018-02-09T17:21:35.636Z,-0.80
2018-02-09T17:24:03.119Z,-0.70
2018-02-09T17:26:31.361Z,-0.70
2018-02-09T17:28:58.848Z,-0.70
2018-02-09T17:31:27.096Z,-0.60
2018-02-09T17:33:55.372Z,-0.60
2018-02-09T17:36:22.851Z,-0.70
2018-02-09T17:38:50.332Z,-0.60
2018-02-09T17:41:17.817Z,-0.60
2018-02-09T17:43:45.303Z,-0.60
2018-02-09T17:46:12.783Z,-0.50
2018-02-09T17:48:40.265Z,-0.50
2018-02-09T17:51:07.748Z,-0.50
2018-02-09T17:53:35.236Z,-0.40
2018-02-09T17:56:02.745Z,-0.40
2018-02-09T17:58:30.218Z,-0.50
2018-02-09T18:00:57.706Z,-0.50
2018-02-09T18:03:25.190Z,-0.40
2018-02-09T18:05:52.684Z,-0.50
2018-02-09T18:08:20.155Z,-0.50
2018-02-09T18:10:47.644Z,-0.50
2018-02-09T18:13:15.888Z,-0.40
2018-02-09T18:15:43.385Z,-0.40
2018-02-09T18:18:11.622Z,-0.50
2018-02-09T18:20:39.104Z,-0.50
2018-02-09T18:23:06.587Z,-0.50
2018-02-09T18:25:34.084Z,-0.40
2018-02-09T18:28:02.480Z,-0.50
2018-02-09T18:30:29.972Z,-0.40
2018-02-09T18:32:57.444Z,-0.40
2018-02-09T18:35:24.954Z,-0.40
2018-02-09T18:37:52.443Z,-0.40
2018-02-09T18:40:19.932Z,-0.40
2018-02-09T18:42:48.174Z,-0.40
2018-02-09T18:45:15.665Z,-0.40
2018-02-09T18:47:43.144Z,-0.40
2018-02-09T18:50:11.397Z,-0.30
2018-02-09T18:52:38.881Z,-0.30
2018-02-09T18:55:06.368Z,-0.30
2018-02-09T18:57:33.847Z,-0.40
2018-02-09T19:00:01.333Z,-0.30
2018-02-09T19:02:29.592Z,-0.30
2018-02-09T19:04:57.089Z,-0.30
2018-02-09T19:07:24.572Z,-0.30
2018-02-09T19:09:52.059Z,-0.30
2018-02-09T19:12:19.538Z,-0.30
2018-02-09T19:14:47.032Z,-0.30
2018-02-09T19:17:14.512Z,-0.30
2018-02-09T19:20:06.704Z,-0.30
2018-02-09T19:22:34.956Z,-0.30
2018-02-09T19:28:13.124Z,-0.30
2018-02-09T19:30:41.371Z,-0.30
2018-02-09T19:33:08.848Z,-0.30
2018-02-09T19:35:37.100Z,-0.30
2018-02-09T19:38:04.832Z,-0.30
2018-02-09T19:40:32.320Z,-0.20
2018-02-09T19:42:59.796Z,-0.20
2018-02-09T19:45:27.303Z,-0.20
2018-02-09T19:47:54.781Z,-0.20
2018-02-09T19:50:22.273Z,-0.30
2018-02-09T19:52:50.042Z,-0.20
2018-02-09T19:55:18.275Z,-0.30
2018-02-09T19:57:45.767Z,-0.30
2018-02-09T20:00:13.267Z,-0.30
2018-02-09T20:02:40.753Z,-0.30
2018-02-09T20:05:08.255Z,-0.20
2018-02-09T20:07:35.747Z,-0.30
2018-02-09T20:10:03.244Z,-0.20
2018-02-09T20:12:30.728Z,-0.20
2018-02-09T20:14:58.205Z,-0.20
2018-02-09T20:17:25.692Z,-0.20
2018-02-09T20:19:53.171Z,-0.20
2018-02-09T20:22:20.667Z,-0.20
2018-02-09T20:24:48.927Z,-0.10
2018-02-09T20:27:16.443Z,-0.10
2018-02-09T20:29:43.920Z,-0.10
2018-02-09T20:32:11.413Z,-0.10
2018-02-09T20:34:38.890Z,-0.10
2018-02-09T20:37:06.385Z,-0.10
2018-02-09T20:39:33.868Z,-0.10
2018-02-09T20:42:01.607Z,-0.20
2018-02-09T20:44:29.093Z,-0.10
2018-02-09T20:46:56.604Z,-0.10
2018-02-09T20:49:24.081Z,-0.10
2018-02-09T20:52:06.062Z,-0.10
2018-02-09T20:54:33.550Z,-0.20
2018-02-09T20:57:01.045Z,-0.20
2018-02-09T20:59:29.338Z,-0.10
2018-02-09T21:01:57.593Z,-0.10
2018-02-09T21:04:25.076Z,-0.20
2018-02-09T21:06:52.595Z,-0.10
2018-02-09T21:09:20.092Z,-0.10
2018-02-09T21:11:48.343Z,-0.10
2018-02-09T21:14:15.831Z,-0.10
2018-02-09T21:16:44.077Z,0.00
2018-02-09T21:19:11.553Z,0.00
2018-02-09T21:21:39.842Z,0.00
2018-02-09T21:24:08.080Z,0.00
2018-02-09T21:26:35.565Z,-0.10
2018-02-09T21:29:03.813Z,0.00
2018-02-09T21:31:31.296Z,0.00
2018-02-09T21:33:59.829Z,0.00
2018-02-09T21:36:27.315Z,0.00
2018-02-09T21:38:54.793Z,0.00
2018-02-09T21:41:23.071Z,0.10
2018-02-09T21:43:51.315Z,0.00
2018-02-09T21:46:18.792Z,0.00
2018-02-09T21:48:46.263Z,0.10
2018-02-09T21:51:14.793Z,0.10
2018-02-09T21:53:42.316Z,0.10
2018-02-09T21:56:09.786Z,0.10
2018-02-09T21:58:37.261Z,0.20
2018-02-09T22:01:04.800Z,0.20
2018-02-09T22:03:32.248Z,0.20
2018-02-09T22:06:00.493Z,0.20
2018-02-09T22:08:27.998Z,0.20
2018-02-09T22:10:55.465Z,0.10
2018-02-09T22:13:22.963Z,0.10
2018-02-09T22:15:50.463Z,0.20
2018-02-09T22:18:18.721Z,0.20
2018-02-09T22:20:46.195Z,0.20
2018-02-09T22:23:14.449Z,0.30
2018-02-09T22:25:41.944Z,0.20
2018-02-09T22:28:09.437Z,0.20
2018-02-09T22:30:36.914Z,0.20
2018-02-09T22:33:05.183Z,0.20
2018-02-09T22:35:32.672Z,0.20
2018-02-09T22:38:00.921Z,0.30
2018-02-09T22:40:28.405Z,0.20
2018-02-09T22:42:55.888Z,0.30
2018-02-09T22:45:23.382Z,0.20
2018-02-09T22:47:50.861Z,0.20
2018-02-09T22:50:18.345Z,0.30
2018-02-09T22:52:46.594Z,0.20
2018-02-09T22:55:14.077Z,0.20
2018-02-09T22:57:42.330Z,0.20
2018-02-09T23:00:09.809Z,0.20
2018-02-09T23:02:37.324Z,0.20
2018-02-09T23:05:04.801Z,0.20
2018-02-09T23:07:32.290Z,0.20
2018-02-09T23:10:00.537Z,0.30
2018-02-09T23:12:28.024Z,0.30
2018-02-09T23:14:55.501Z,0.30
2018-02-09T23:17:23.752Z,0.30
2018-02-09T23:19:51.996Z,0.40
2018-02-09T23:22:19.482Z,0.30
2018-02-09T23:24:46.967Z,0.30
2018-02-09T23:27:15.231Z,0.30
2018-02-09T23:29:43.477Z,0.30
2018-02-09T23:32:10.991Z,0.30
2018-02-09T23:34:38.464Z,0.30
2018-02-09T23:37:05.957Z,0.30
2018-02-09T23:39:33.447Z,0.30
2018-02-09T23:42:01.705Z,0.30
2018-02-09T23:44:29.192Z,0.30
2018-02-09T23:46:56.669Z,0.30
2018-02-09T23:49:24.160Z,0.40
2018-02-09T23:51:51.638Z,0.30
2018-02-09T23:54:19.126Z,0.30
2018-02-09T23:56:47.640Z,0.30
2018-02-09T23:59:15.138Z,0.30
